sensor_id;sensor_type;location;lat;lon;timestamp;pressure;altitude;pressure_sealevel;temperature;humidity
54948;BME280;41113;41.882;12.530;2023-06-26T00:02:02;100852.31;;;24.92;45.30
54948;BME280;41113;41.882;12.530;2023-06-26T00:04:27;100846.50;;;24.82;45.57
54948;BME280;41113;41.882;12.530;2023-06-26T00:06:52;100840.22;;;24.75;45.52
54948;BME280;41113;41.882;12.530;2023-06-26T00:09:18;100842.56;;;24.71;45.56
54948;BME280;41113;41.882;12.530;2023-06-26T00:11:43;100842.28;;;24.55;45.86
54948;BME280;41113;41.882;12.530;2023-06-26T00:14:08;100834.22;;;24.60;45.72
54948;BME280;41113;41.882;12.530;2023-06-26T00:16:34;100837.66;;;24.55;45.66
54948;BME280;41113;41.882;12.530;2023-06-26T00:18:59;100836.81;;;24.55;45.57
54948;BME280;41113;41.882;12.530;2023-06-26T00:21:25;100825.81;;;24.55;45.42
54948;BME280;41113;41.882;12.530;2023-06-26T00:23:51;100839.38;;;24.49;45.47
54948;BME280;41113;41.882;12.530;2023-06-26T00:26:16;100833.91;;;24.49;45.52
54948;BME280;41113;41.882;12.530;2023-06-26T00:28:41;100831.31;;;24.55;45.39
54948;BME280;41113;41.882;12.530;2023-06-26T00:31:07;100820.31;;;24.55;45.49
54948;BME280;41113;41.882;12.530;2023-06-26T00:33:32;100832.00;;;24.50;45.62
54948;BME280;41113;41.882;12.530;2023-06-26T00:35:58;100833.44;;;24.52;45.44
54948;BME280;41113;41.882;12.530;2023-06-26T00:38:24;100831.38;;;24.48;45.44
54948;BME280;41113;41.882;12.530;2023-06-26T00:40:49;100834.78;;;24.43;45.54
54948;BME280;41113;41.882;12.530;2023-06-26T00:43:15;100833.28;;;24.47;45.47
54948;BME280;41113;41.882;12.530;2023-06-26T00:45:40;100830.19;;;24.37;45.70
54948;BME280;41113;41.882;12.530;2023-06-26T00:48:07;100831.53;;;24.28;45.95
54948;BME280;41113;41.882;12.530;2023-06-26T00:50:33;100837.53;;;24.12;46.55
54948;BME280;41113;41.882;12.530;2023-06-26T00:52:59;100834.22;;;23.97;46.91
54948;BME280;41113;41.882;12.530;2023-06-26T00:55:27;100838.84;;;24.03;46.77
54948;BME280;41113;41.882;12.530;2023-06-26T00:57:53;100833.41;;;23.96;47.09
54948;BME280;41113;41.882;12.530;2023-06-26T01:00:19;100833.94;;;23.80;47.40
54948;BME280;41113;41.882;12.530;2023-06-26T01:02:45;100828.44;;;23.73;47.64
54948;BME280;41113;41.882;12.530;2023-06-26T01:05:11;100817.13;;;23.63;47.96
54948;BME280;41113;41.882;12.530;2023-06-26T01:07:38;100820.88;;;23.75;47.46
54948;BME280;41113;41.882;12.530;2023-06-26T01:10:07;100819.19;;;23.74;47.28
54948;BME280;41113;41.882;12.530;2023-06-26T01:12:33;100823.84;;;23.67;47.61
54948;BME280;41113;41.882;12.530;2023-06-26T01:14:59;100818.16;;;23.69;47.55
54948;BME280;41113;41.882;12.530;2023-06-26T01:17:27;100827.22;;;23.69;47.82
54948;BME280;41113;41.882;12.530;2023-06-26T01:20:00;100818.31;;;23.80;47.38
54948;BME280;41113;41.882;12.530;2023-06-26T01:22:47;100814.84;;;23.92;47.61
54948;BME280;41113;41.882;12.530;2023-06-26T01:25:23;100805.66;;;23.73;47.94
54948;BME280;41113;41.882;12.530;2023-06-26T01:27:55;100808.94;;;23.56;48.75
54948;BME280;41113;41.882;12.530;2023-06-26T01:30:21;100807.06;;;23.44;48.82
54948;BME280;41113;41.882;12.530;2023-06-26T01:32:48;100812.94;;;23.54;48.63
54948;BME280;41113;41.882;12.530;2023-06-26T01:35:14;100811.25;;;23.59;48.30
54948;BME280;41113;41.882;12.530;2023-06-26T01:37:40;100807.34;;;23.74;48.08
54948;BME280;41113;41.882;12.530;2023-06-26T01:40:06;100806.09;;;23.76;48.20
54948;BME280;41113;41.882;12.530;2023-06-26T01:42:33;100806.84;;;23.90;47.99
54948;BME280;41113;41.882;12.530;2023-06-26T01:45:11;100806.91;;;23.83;48.25
54948;BME280;41113;41.882;12.530;2023-06-26T01:47:40;100813.72;;;23.68;48.92
54948;BME280;41113;41.882;12.530;2023-06-26T01:50:17;100813.63;;;23.43;49.76
54948;BME280;41113;41.882;12.530;2023-06-26T01:53:02;100805.19;;;23.38;50.15
54948;BME280;41113;41.882;12.530;2023-06-26T01:55:32;100801.59;;;23.44;49.50
54948;BME280;41113;41.882;12.530;2023-06-26T01:58:01;100806.63;;;23.47;49.89
54948;BME280;41113;41.882;12.530;2023-06-26T02:00:27;100806.75;;;23.20;50.36
54948;BME280;41113;41.882;12.530;2023-06-26T02:02:52;100810.91;;;23.29;49.79
54948;BME280;41113;41.882;12.530;2023-06-26T02:05:18;100801.00;;;23.28;50.22
54948;BME280;41113;41.882;12.530;2023-06-26T02:07:43;100808.63;;;23.20;50.23
54948;BME280;41113;41.882;12.530;2023-06-26T02:10:09;100803.97;;;23.27;49.55
54948;BME280;41113;41.882;12.530;2023-06-26T02:12:35;100811.84;;;23.10;49.96
54948;BME280;41113;41.882;12.530;2023-06-26T02:15:02;100819.38;;;23.21;49.69
54948;BME280;41113;41.882;12.530;2023-06-26T02:17:27;100816.75;;;23.40;49.00
54948;BME280;41113;41.882;12.530;2023-06-26T02:19:53;100815.78;;;23.27;49.12
54948;BME280;41113;41.882;12.530;2023-06-26T02:22:18;100826.34;;;23.17;49.32
54948;BME280;41113;41.882;12.530;2023-06-26T02:24:43;100827.03;;;22.93;49.84
54948;BME280;41113;41.882;12.530;2023-06-26T02:27:09;100815.88;;;22.88;49.86
54948;BME280;41113;41.882;12.530;2023-06-26T02:29:35;100821.56;;;22.80;50.24
54948;BME280;41113;41.882;12.530;2023-06-26T02:32:00;100819.66;;;22.74;50.49
54948;BME280;41113;41.882;12.530;2023-06-26T02:34:26;100819.03;;;22.58;50.53
54948;BME280;41113;41.882;12.530;2023-06-26T02:36:51;100817.78;;;22.54;50.62
54948;BME280;41113;41.882;12.530;2023-06-26T02:39:19;100811.28;;;22.49;51.14
54948;BME280;41113;41.882;12.530;2023-06-26T02:41:45;100813.16;;;22.35;51.49
54948;BME280;41113;41.882;12.530;2023-06-26T02:44:10;100812.31;;;22.41;51.33
54948;BME280;41113;41.882;12.530;2023-06-26T02:46:37;100803.88;;;22.36;51.42
54948;BME280;41113;41.882;12.530;2023-06-26T02:49:02;100808.53;;;22.29;51.30
54948;BME280;41113;41.882;12.530;2023-06-26T02:51:28;100810.84;;;22.45;51.33
54948;BME280;41113;41.882;12.530;2023-06-26T02:53:53;100822.41;;;22.34;51.60
54948;BME280;41113;41.882;12.530;2023-06-26T02:56:18;100816.31;;;22.32;51.71
54948;BME280;41113;41.882;12.530;2023-06-26T02:58:44;100816.94;;;22.21;51.80
54948;BME280;41113;41.882;12.530;2023-06-26T03:01:09;100815.25;;;22.13;52.13
54948;BME280;41113;41.882;12.530;2023-06-26T03:03:34;100810.63;;;22.14;52.06
54948;BME280;41113;41.882;12.530;2023-06-26T03:06:06;100817.53;;;22.10;52.18
54948;BME280;41113;41.882;12.530;2023-06-26T03:08:36;100821.56;;;22.20;52.11
54948;BME280;41113;41.882;12.530;2023-06-26T03:11:02;100818.19;;;22.12;52.29
54948;BME280;41113;41.882;12.530;2023-06-26T03:13:28;100816.28;;;22.05;52.50
54948;BME280;41113;41.882;12.530;2023-06-26T03:15:53;100809.72;;;22.00;52.93
54948;BME280;41113;41.882;12.530;2023-06-26T03:18:18;100816.03;;;22.00;52.47
54948;BME280;41113;41.882;12.530;2023-06-26T03:20:44;100822.97;;;21.96;52.85
54948;BME280;41113;41.882;12.530;2023-06-26T03:23:09;100815.66;;;22.03;52.60
54948;BME280;41113;41.882;12.530;2023-06-26T03:25:34;100824.22;;;22.00;52.40
54948;BME280;41113;41.882;12.530;2023-06-26T03:28:00;100824.03;;;22.02;52.81
54948;BME280;41113;41.882;12.530;2023-06-26T03:30:25;100824.44;;;21.99;52.79
54948;BME280;41113;41.882;12.530;2023-06-26T03:32:50;100824.41;;;21.79;53.39
54948;BME280;41113;41.882;12.530;2023-06-26T03:35:16;100828.38;;;21.77;53.19
54948;BME280;41113;41.882;12.530;2023-06-26T03:37:41;100829.22;;;21.70;53.92
54948;BME280;41113;41.882;12.530;2023-06-26T03:40:07;100836.13;;;21.60;54.21
54948;BME280;41113;41.882;12.530;2023-06-26T03:42:32;100833.78;;;21.57;53.91
54948;BME280;41113;41.882;12.530;2023-06-26T03:44:58;100824.34;;;21.66;53.61
54948;BME280;41113;41.882;12.530;2023-06-26T03:47:23;100835.91;;;21.61;54.05
54948;BME280;41113;41.882;12.530;2023-06-26T03:49:49;100828.56;;;21.68;53.73
54948;BME280;41113;41.882;12.530;2023-06-26T03:52:14;100826.47;;;21.77;53.46
54948;BME280;41113;41.882;12.530;2023-06-26T03:54:39;100827.31;;;21.64;53.61
54948;BME280;41113;41.882;12.530;2023-06-26T03:57:05;100830.44;;;21.61;53.88
54948;BME280;41113;41.882;12.530;2023-06-26T03:59:30;100835.88;;;22.16;52.41
54948;BME280;41113;41.882;12.530;2023-06-26T04:01:55;100827.69;;;22.82;50.41
54948;BME280;41113;41.882;12.530;2023-06-26T04:04:21;100817.38;;;23.93;47.93
54948;BME280;41113;41.882;12.530;2023-06-26T04:06:47;100822.91;;;24.18;46.63
54948;BME280;41113;41.882;12.530;2023-06-26T04:09:12;100822.84;;;24.81;44.75
54948;BME280;41113;41.882;12.530;2023-06-26T04:11:37;100825.34;;;25.44;43.28
54948;BME280;41113;41.882;12.530;2023-06-26T04:14:03;100824.25;;;25.27;43.75
54948;BME280;41113;41.882;12.530;2023-06-26T04:16:28;100819.28;;;26.02;42.45
54948;BME280;41113;41.882;12.530;2023-06-26T04:18:54;100824.44;;;27.22;40.87
54948;BME280;41113;41.882;12.530;2023-06-26T04:21:21;100821.44;;;26.53;40.68
54948;BME280;41113;41.882;12.530;2023-06-26T04:23:46;100826.94;;;26.42;41.63
54948;BME280;41113;41.882;12.530;2023-06-26T04:26:12;100825.03;;;26.54;41.13
54948;BME280;41113;41.882;12.530;2023-06-26T04:28:39;100826.97;;;27.23;40.00
54948;BME280;41113;41.882;12.530;2023-06-26T04:31:05;100823.69;;;28.52;37.26
54948;BME280;41113;41.882;12.530;2023-06-26T04:33:30;100824.88;;;28.11;37.67
54948;BME280;41113;41.882;12.530;2023-06-26T04:35:56;100828.69;;;27.53;39.39
54948;BME280;41113;41.882;12.530;2023-06-26T04:38:22;100833.97;;;27.66;38.65
54948;BME280;41113;41.882;12.530;2023-06-26T04:40:48;100828.38;;;28.68;36.97
54948;BME280;41113;41.882;12.530;2023-06-26T04:43:14;100831.78;;;29.96;35.99
54948;BME280;41113;41.882;12.530;2023-06-26T04:45:39;100839.94;;;30.08;35.70
54948;BME280;41113;41.882;12.530;2023-06-26T04:48:05;100838.69;;;30.21;35.13
54948;BME280;41113;41.882;12.530;2023-06-26T04:50:32;100844.06;;;31.49;32.28
54948;BME280;41113;41.882;12.530;2023-06-26T04:52:59;100840.31;;;29.68;35.49
54948;BME280;41113;41.882;12.530;2023-06-26T04:55:24;100839.16;;;29.03;36.46
54948;BME280;41113;41.882;12.530;2023-06-26T04:57:50;100844.34;;;30.31;35.00
54948;BME280;41113;41.882;12.530;2023-06-26T05:00:16;100846.22;;;28.15;37.32
54948;BME280;41113;41.882;12.530;2023-06-26T05:02:41;100843.69;;;27.69;38.62
54948;BME280;41113;41.882;12.530;2023-06-26T05:05:07;100840.41;;;28.29;37.35
54948;BME280;41113;41.882;12.530;2023-06-26T05:07:33;100845.97;;;28.96;36.89
54948;BME280;41113;41.882;12.530;2023-06-26T05:09:58;100849.09;;;29.60;35.48
54948;BME280;41113;41.882;12.530;2023-06-26T05:12:24;100838.13;;;29.48;35.32
54948;BME280;41113;41.882;12.530;2023-06-26T05:14:49;100842.53;;;28.72;36.50
54948;BME280;41113;41.882;12.530;2023-06-26T05:17:14;100847.72;;;28.35;36.83
54948;BME280;41113;41.882;12.530;2023-06-26T05:19:40;100852.28;;;27.60;38.52
54948;BME280;41113;41.882;12.530;2023-06-26T05:22:06;100852.88;;;27.11;39.67
54948;BME280;41113;41.882;12.530;2023-06-26T05:24:35;100858.56;;;28.25;37.67
54948;BME280;41113;41.882;12.530;2023-06-26T05:27:01;100855.13;;;29.18;36.55
54948;BME280;41113;41.882;12.530;2023-06-26T05:29:31;100864.00;;;30.02;35.47
54948;BME280;41113;41.882;12.530;2023-06-26T05:31:57;100852.91;;;29.59;35.76
54948;BME280;41113;41.882;12.530;2023-06-26T05:34:23;100852.13;;;30.07;35.25
54948;BME280;41113;41.882;12.530;2023-06-26T05:36:55;100851.00;;;30.62;34.37
54948;BME280;41113;41.882;12.530;2023-06-26T05:39:22;100854.94;;;31.08;33.31
54948;BME280;41113;41.882;12.530;2023-06-26T05:41:48;100848.72;;;32.06;31.99
54948;BME280;41113;41.882;12.530;2023-06-26T05:44:13;100850.94;;;32.04;31.82
54948;BME280;41113;41.882;12.530;2023-06-26T05:46:39;100858.91;;;30.53;34.10
54948;BME280;41113;41.882;12.530;2023-06-26T05:49:04;100859.81;;;30.91;33.41
54948;BME280;41113;41.882;12.530;2023-06-26T05:51:30;100859.03;;;30.04;34.70
54948;BME280;41113;41.882;12.530;2023-06-26T05:53:55;100861.41;;;29.30;36.23
54948;BME280;41113;41.882;12.530;2023-06-26T05:56:21;100865.06;;;29.36;36.41
54948;BME280;41113;41.882;12.530;2023-06-26T05:58:47;100861.94;;;29.71;36.06
54948;BME280;41113;41.882;12.530;2023-06-26T06:01:12;100857.56;;;29.75;36.26
54948;BME280;41113;41.882;12.530;2023-06-26T06:03:39;100858.81;;;30.11;36.06
54948;BME280;41113;41.882;12.530;2023-06-26T06:06:04;100867.75;;;30.18;35.71
54948;BME280;41113;41.882;12.530;2023-06-26T06:08:29;100865.28;;;29.95;36.28
54948;BME280;41113;41.882;12.530;2023-06-26T06:10:55;100879.69;;;31.67;34.05
54948;BME280;41113;41.882;12.530;2023-06-26T06:13:21;100869.56;;;31.41;34.02
54948;BME280;41113;41.882;12.530;2023-06-26T06:15:46;100868.56;;;31.57;34.35
54948;BME280;41113;41.882;12.530;2023-06-26T06:18:11;100865.16;;;31.50;34.24
54948;BME280;41113;41.882;12.530;2023-06-26T06:20:36;100871.94;;;31.69;34.57
54948;BME280;41113;41.882;12.530;2023-06-26T06:23:02;100869.66;;;32.54;33.06
54948;BME280;41113;41.882;12.530;2023-06-26T06:25:27;100855.97;;;33.14;32.04
54948;BME280;41113;41.882;12.530;2023-06-26T06:27:53;100865.94;;;32.08;33.14
54948;BME280;41113;41.882;12.530;2023-06-26T06:30:18;100873.38;;;31.77;34.18
54948;BME280;41113;41.882;12.530;2023-06-26T06:32:43;100867.13;;;29.89;36.76
54948;BME280;41113;41.882;12.530;2023-06-26T06:35:09;100870.72;;;28.40;39.57
54948;BME280;41113;41.882;12.530;2023-06-26T06:37:36;100875.72;;;27.46;41.70
54948;BME280;41113;41.882;12.530;2023-06-26T06:40:02;100872.28;;;27.39;41.72
54948;BME280;41113;41.882;12.530;2023-06-26T06:42:29;100875.03;;;27.39;41.80
54948;BME280;41113;41.882;12.530;2023-06-26T06:44:54;100875.34;;;27.95;40.31
54948;BME280;41113;41.882;12.530;2023-06-26T06:47:20;100874.34;;;28.41;39.53
54948;BME280;41113;41.882;12.530;2023-06-26T06:49:46;100874.25;;;28.07;40.42
54948;BME280;41113;41.882;12.530;2023-06-26T06:52:11;100877.03;;;27.55;41.18
54948;BME280;41113;41.882;12.530;2023-06-26T06:57:18;100874.16;;;28.31;39.65
54948;BME280;41113;41.882;12.530;2023-06-26T06:59:44;100863.88;;;28.43;39.34
54948;BME280;41113;41.882;12.530;2023-06-26T07:02:09;100866.28;;;28.56;39.66
54948;BME280;41113;41.882;12.530;2023-06-26T07:04:35;100863.47;;;28.85;38.84
54948;BME280;41113;41.882;12.530;2023-06-26T07:07:00;100868.13;;;28.34;40.02
54948;BME280;41113;41.882;12.530;2023-06-26T07:09:25;100868.97;;;28.51;39.90
54948;BME280;41113;41.882;12.530;2023-06-26T07:11:51;100873.06;;;29.16;38.46
54948;BME280;41113;41.882;12.530;2023-06-26T07:14:16;100864.56;;;29.83;37.30
54948;BME280;41113;41.882;12.530;2023-06-26T07:16:41;100872.84;;;29.39;38.23
54948;BME280;41113;41.882;12.530;2023-06-26T07:19:06;100865.69;;;29.21;38.76
54948;BME280;41113;41.882;12.530;2023-06-26T07:21:32;100863.81;;;28.88;39.22
54948;BME280;41113;41.882;12.530;2023-06-26T07:23:57;100865.22;;;28.91;39.73
54948;BME280;41113;41.882;12.530;2023-06-26T07:26:22;100864.31;;;29.02;39.13
54948;BME280;41113;41.882;12.530;2023-06-26T07:28:48;100863.94;;;29.54;38.78
54948;BME280;41113;41.882;12.530;2023-06-26T07:31:14;100865.81;;;29.70;38.15
54948;BME280;41113;41.882;12.530;2023-06-26T07:33:41;100870.97;;;29.61;38.64
54948;BME280;41113;41.882;12.530;2023-06-26T07:36:08;100871.94;;;29.33;38.87
54948;BME280;41113;41.882;12.530;2023-06-26T07:38:33;100870.34;;;29.59;38.71
54948;BME280;41113;41.882;12.530;2023-06-26T07:40:58;100861.09;;;29.10;39.70
54948;BME280;41113;41.882;12.530;2023-06-26T07:43:24;100869.91;;;29.46;39.41
54948;BME280;41113;41.882;12.530;2023-06-26T07:45:49;100872.03;;;29.82;38.47
54948;BME280;41113;41.882;12.530;2023-06-26T07:48:16;100870.88;;;29.78;38.95
54948;BME280;41113;41.882;12.530;2023-06-26T07:50:42;100863.47;;;29.84;38.59
54948;BME280;41113;41.882;12.530;2023-06-26T07:53:07;100867.38;;;29.61;38.97
54948;BME280;41113;41.882;12.530;2023-06-26T07:55:32;100863.34;;;30.22;37.89
54948;BME280;41113;41.882;12.530;2023-06-26T07:57:58;100859.69;;;30.76;37.14
54948;BME280;41113;41.882;12.530;2023-06-26T08:00:23;100857.31;;;30.25;38.70
54948;BME280;41113;41.882;12.530;2023-06-26T08:02:49;100859.34;;;29.86;39.36
54948;BME280;41113;41.882;12.530;2023-06-26T08:05:14;100845.19;;;30.04;39.12
54948;BME280;41113;41.882;12.530;2023-06-26T08:07:39;100851.75;;;29.55;40.00
54948;BME280;41113;41.882;12.530;2023-06-26T08:10:05;100853.31;;;29.46;40.73
54948;BME280;41113;41.882;12.530;2023-06-26T08:12:31;100855.09;;;29.35;40.96
54948;BME280;41113;41.882;12.530;2023-06-26T08:14:56;100850.03;;;29.70;40.14
54948;BME280;41113;41.882;12.530;2023-06-26T08:17:21;100849.63;;;30.32;39.22
54948;BME280;41113;41.882;12.530;2023-06-26T08:19:47;100851.56;;;30.05;39.74
54948;BME280;41113;41.882;12.530;2023-06-26T08:22:12;100849.97;;;30.14;39.61
54948;BME280;41113;41.882;12.530;2023-06-26T08:24:38;100847.53;;;30.50;38.92
54948;BME280;41113;41.882;12.530;2023-06-26T08:27:05;100855.19;;;30.64;38.67
54948;BME280;41113;41.882;12.530;2023-06-26T08:29:33;100857.91;;;30.96;38.70
54948;BME280;41113;41.882;12.530;2023-06-26T08:31:58;100858.06;;;30.48;39.67
54948;BME280;41113;41.882;12.530;2023-06-26T08:34:24;100861.84;;;30.10;40.03
54948;BME280;41113;41.882;12.530;2023-06-26T08:36:50;100855.72;;;30.34;39.86
54948;BME280;41113;41.882;12.530;2023-06-26T08:39:15;100858.00;;;30.70;39.03
54948;BME280;41113;41.882;12.530;2023-06-26T08:41:40;100852.06;;;30.93;38.85
54948;BME280;41113;41.882;12.530;2023-06-26T08:44:07;100864.56;;;30.95;38.85
54948;BME280;41113;41.882;12.530;2023-06-26T08:46:33;100859.16;;;30.20;40.28
54948;BME280;41113;41.882;12.530;2023-06-26T08:49:14;100857.94;;;30.32;40.28
54948;BME280;41113;41.882;12.530;2023-06-26T08:51:46;100852.50;;;30.48;40.36
54948;BME280;41113;41.882;12.530;2023-06-26T08:54:15;100861.50;;;30.28;40.60
54948;BME280;41113;41.882;12.530;2023-06-26T08:56:44;100861.66;;;29.94;42.09
54948;BME280;41113;41.882;12.530;2023-06-26T08:59:12;100863.19;;;29.85;41.89
54948;BME280;41113;41.882;12.530;2023-06-26T09:01:40;100862.72;;;30.15;41.28
54948;BME280;41113;41.882;12.530;2023-06-26T09:04:06;100863.66;;;29.99;41.55
54948;BME280;41113;41.882;12.530;2023-06-26T09:06:32;100863.63;;;29.72;42.09
54948;BME280;41113;41.882;12.530;2023-06-26T09:08:58;100857.81;;;29.95;41.73
54948;BME280;41113;41.882;12.530;2023-06-26T09:11:23;100861.53;;;30.33;40.73
54948;BME280;41113;41.882;12.530;2023-06-26T09:13:48;100854.88;;;30.61;40.35
54948;BME280;41113;41.882;12.530;2023-06-26T09:16:14;100856.06;;;30.70;40.11
54948;BME280;41113;41.882;12.530;2023-06-26T09:18:42;100855.75;;;30.67;40.64
54948;BME280;41113;41.882;12.530;2023-06-26T09:21:10;100845.22;;;30.69;40.55
54948;BME280;41113;41.882;12.530;2023-06-26T09:23:36;100850.84;;;30.79;40.38
54948;BME280;41113;41.882;12.530;2023-06-26T09:26:05;100852.00;;;30.88;40.42
54948;BME280;41113;41.882;12.530;2023-06-26T09:28:35;100848.88;;;30.74;40.47
54948;BME280;41113;41.882;12.530;2023-06-26T09:31:05;100846.88;;;30.64;40.26
54948;BME280;41113;41.882;12.530;2023-06-26T09:33:38;100844.88;;;30.28;39.99
54948;BME280;41113;41.882;12.530;2023-06-26T09:36:07;100842.81;;;30.50;40.28
54948;BME280;41113;41.882;12.530;2023-06-26T09:38:35;100839.72;;;30.74;39.64
54948;BME280;41113;41.882;12.530;2023-06-26T09:41:02;100843.47;;;30.94;39.57
54948;BME280;41113;41.882;12.530;2023-06-26T09:43:27;100839.38;;;31.02;39.08
54948;BME280;41113;41.882;12.530;2023-06-26T09:45:53;100843.13;;;30.86;39.17
54948;BME280;41113;41.882;12.530;2023-06-26T09:48:19;100841.41;;;30.80;39.35
54948;BME280;41113;41.882;12.530;2023-06-26T09:50:45;100828.25;;;31.02;39.19
54948;BME280;41113;41.882;12.530;2023-06-26T09:53:11;100831.16;;;31.17;38.72
54948;BME280;41113;41.882;12.530;2023-06-26T09:55:40;100834.47;;;31.19;38.80
54948;BME280;41113;41.882;12.530;2023-06-26T09:58:10;100836.09;;;31.15;38.52
54948;BME280;41113;41.882;12.530;2023-06-26T10:00:39;100839.03;;;31.36;38.27
54948;BME280;41113;41.882;12.530;2023-06-26T10:03:05;100837.38;;;31.45;38.18
54948;BME280;41113;41.882;12.530;2023-06-26T10:05:30;100836.22;;;31.31;37.91
54948;BME280;41113;41.882;12.530;2023-06-26T10:07:55;100830.50;;;31.05;37.44
54948;BME280;41113;41.882;12.530;2023-06-26T10:10:23;100826.59;;;31.01;37.14
54948;BME280;41113;41.882;12.530;2023-06-26T10:12:51;100832.69;;;30.98;36.38
54948;BME280;41113;41.882;12.530;2023-06-26T10:15:21;100830.22;;;31.02;36.38
54948;BME280;41113;41.882;12.530;2023-06-26T10:17:49;100834.88;;;30.96;36.71
54948;BME280;41113;41.882;12.530;2023-06-26T10:20:15;100846.00;;;30.96;36.59
54948;BME280;41113;41.882;12.530;2023-06-26T10:22:44;100830.53;;;30.68;36.02
54948;BME280;41113;41.882;12.530;2023-06-26T10:25:10;100832.50;;;30.73;35.94
54948;BME280;41113;41.882;12.530;2023-06-26T10:27:43;100833.59;;;30.72;34.99
54948;BME280;41113;41.882;12.530;2023-06-26T10:30:21;100832.72;;;30.61;34.83
54948;BME280;41113;41.882;12.530;2023-06-26T10:32:47;100837.47;;;30.71;34.10
54948;BME280;41113;41.882;12.530;2023-06-26T10:35:13;100838.75;;;30.90;35.30
54948;BME280;41113;41.882;12.530;2023-06-26T10:37:47;100837.16;;;31.04;34.27
54948;BME280;41113;41.882;12.530;2023-06-26T10:40:14;100831.31;;;31.01;34.32
54948;BME280;41113;41.882;12.530;2023-06-26T10:42:40;100822.19;;;31.05;34.89
54948;BME280;41113;41.882;12.530;2023-06-26T10:47:36;100825.78;;;30.63;34.38
54948;BME280;41113;41.882;12.530;2023-06-26T10:55:35;100828.50;;;30.58;35.50
54948;BME280;41113;41.882;12.530;2023-06-26T10:58:01;100822.75;;;30.65;35.17
54948;BME280;41113;41.882;12.530;2023-06-26T11:00:29;100815.38;;;30.81;34.83
54948;BME280;41113;41.882;12.530;2023-06-26T11:02:56;100826.53;;;30.91;35.08
54948;BME280;41113;41.882;12.530;2023-06-26T11:05:27;100818.25;;;30.96;34.91
54948;BME280;41113;41.882;12.530;2023-06-26T11:08:04;100813.84;;;31.05;34.56
54948;BME280;41113;41.882;12.530;2023-06-26T11:10:30;100815.63;;;31.21;35.10
54948;BME280;41113;41.882;12.530;2023-06-26T11:13:12;100814.56;;;31.27;35.01
54948;BME280;41113;41.882;12.530;2023-06-26T11:15:38;100815.69;;;31.32;35.19
54948;BME280;41113;41.882;12.530;2023-06-26T11:18:06;100819.06;;;31.49;34.66
54948;BME280;41113;41.882;12.530;2023-06-26T11:20:31;100811.34;;;31.56;34.51
54948;BME280;41113;41.882;12.530;2023-06-26T11:22:57;100808.59;;;31.61;34.81
54948;BME280;41113;41.882;12.530;2023-06-26T11:25:23;100809.44;;;31.67;34.41
54948;BME280;41113;41.882;12.530;2023-06-26T11:27:49;100804.44;;;31.69;34.63
54948;BME280;41113;41.882;12.530;2023-06-26T11:30:26;100805.25;;;31.59;33.67
54948;BME280;41113;41.882;12.530;2023-06-26T11:32:51;100799.44;;;31.66;34.67
54948;BME280;41113;41.882;12.530;2023-06-26T11:35:23;100802.53;;;31.74;34.07
54948;BME280;41113;41.882;12.530;2023-06-26T11:37:56;100788.69;;;31.90;34.37
54948;BME280;41113;41.882;12.530;2023-06-26T11:40:23;100792.59;;;31.88;34.06
54948;BME280;41113;41.882;12.530;2023-06-26T11:42:53;100796.72;;;31.81;34.36
54948;BME280;41113;41.882;12.530;2023-06-26T11:45:19;100797.81;;;31.75;34.37
54948;BME280;41113;41.882;12.530;2023-06-26T11:47:46;100797.22;;;31.68;34.55
54948;BME280;41113;41.882;12.530;2023-06-26T11:50:17;100794.72;;;31.66;34.25
54948;BME280;41113;41.882;12.530;2023-06-26T11:52:43;100798.88;;;31.69;34.71
54948;BME280;41113;41.882;12.530;2023-06-26T11:55:09;100797.50;;;31.66;33.97
54948;BME280;41113;41.882;12.530;2023-06-26T11:57:36;100794.75;;;31.71;34.13
54948;BME280;41113;41.882;12.530;2023-06-26T12:00:14;100789.47;;;31.75;32.80
54948;BME280;41113;41.882;12.530;2023-06-26T12:02:40;100788.63;;;31.69;33.66
54948;BME280;41113;41.882;12.530;2023-06-26T12:05:06;100792.53;;;31.73;33.87
54948;BME280;41113;41.882;12.530;2023-06-26T12:07:32;100793.38;;;31.79;33.97
54948;BME280;41113;41.882;12.530;2023-06-26T12:09:59;100790.31;;;31.80;33.93
54948;BME280;41113;41.882;12.530;2023-06-26T12:12:24;100790.31;;;31.80;33.74
54948;BME280;41113;41.882;12.530;2023-06-26T12:14:53;100789.22;;;31.86;33.52
54948;BME280;41113;41.882;12.530;2023-06-26T12:17:23;100783.69;;;31.97;33.21
54948;BME280;41113;41.882;12.530;2023-06-26T12:19:50;100783.16;;;32.00;33.55
54948;BME280;41113;41.882;12.530;2023-06-26T12:22:17;100777.59;;;32.00;32.90
54948;BME280;41113;41.882;12.530;2023-06-26T12:24:45;100779.25;;;32.01;33.27
54948;BME280;41113;41.882;12.530;2023-06-26T12:27:14;100783.97;;;32.00;33.97
54948;BME280;41113;41.882;12.530;2023-06-26T12:29:54;100782.03;;;31.96;35.54
54948;BME280;41113;41.882;12.530;2023-06-26T12:32:24;100783.97;;;32.00;35.92
54948;BME280;41113;41.882;12.530;2023-06-26T12:34:56;100789.25;;;31.97;36.16
54948;BME280;41113;41.882;12.530;2023-06-26T12:37:22;100788.16;;;31.98;36.57
54948;BME280;41113;41.882;12.530;2023-06-26T12:39:55;100795.09;;;31.90;36.62
54948;BME280;41113;41.882;12.530;2023-06-26T12:42:22;100789.53;;;31.90;37.15
54948;BME280;41113;41.882;12.530;2023-06-26T12:44:49;100795.91;;;31.91;37.20
54948;BME280;41113;41.882;12.530;2023-06-26T12:47:15;100797.59;;;31.92;37.20
54948;BME280;41113;41.882;12.530;2023-06-26T12:49:42;100797.81;;;31.85;37.59